createdAt,value
2023-03-05T00:04:39.795Z,1.95
2023-03-05T00:09:41.232Z,1.42
2023-03-05T00:14:42.692Z,1.83
2023-03-05T00:19:44.268Z,1.83
2023-03-05T00:24:45.704Z,1.80
2023-03-05T00:29:47.239Z,1.77
2023-03-05T00:34:49.980Z,1.60
2023-03-05T00:39:51.429Z,1.58
2023-03-05T00:44:52.867Z,1.52
2023-03-05T00:49:54.299Z,1.63
2023-03-05T00:54:55.735Z,1.23
2023-03-05T00:59:57.178Z,1.77
2023-03-05T01:04:58.661Z,2.17
2023-03-05T01:10:00.716Z,1.45
2023-03-05T01:15:02.721Z,1.50
2023-03-05T01:20:05.970Z,1.52
2023-03-05T01:25:08.317Z,1.17
2023-03-05T01:30:10.810Z,1.33
2023-03-05T01:35:20.809Z,1.70
2023-03-05T01:40:28.391Z,1.50
2023-03-05T01:45:32.983Z,1.33
2023-03-05T01:50:34.904Z,1.40
2023-03-05T01:55:37.313Z,0.98
2023-03-05T02:00:43.966Z,1.88
2023-03-05T02:05:45.575Z,1.27
2023-03-05T02:10:56.284Z,1.17
2023-03-05T02:16:00.099Z,1.42
2023-03-05T02:21:04.311Z,1.17
2023-03-05T02:26:09.382Z,0.80
2023-03-05T02:31:17.480Z,1.33
2023-03-05T02:36:19.471Z,0.85
2023-03-05T02:46:24.255Z,1.13
2023-03-05T02:51:25.809Z,1.52
2023-03-05T02:56:27.998Z,1.52
2023-03-05T03:01:29.837Z,1.20
2023-03-05T03:06:31.612Z,1.05
2023-03-05T03:11:33.068Z,1.25
2023-03-05T03:16:34.673Z,1.02
2023-03-05T03:21:36.192Z,1.35
2023-03-05T03:26:37.622Z,1.15
2023-03-05T03:31:41.061Z,0.95
2023-03-05T03:36:43.810Z,1.15
2023-03-05T03:41:48.247Z,0.70
2023-03-05T03:46:50.782Z,0.60
2023-03-05T03:51:58.127Z,1.00
2023-03-05T03:56:59.705Z,0.70
2023-03-05T04:02:01.136Z,0.57
2023-03-05T04:07:02.660Z,0.80
2023-03-05T04:12:04.368Z,0.60
2023-03-05T04:17:05.828Z,0.50
2023-03-05T04:22:11.108Z,0.90
2023-03-05T04:27:12.989Z,1.58
2023-03-05T04:32:14.742Z,0.77
2023-03-05T04:37:16.346Z,1.30
2023-03-05T04:42:19.236Z,0.98
2023-03-05T04:47:20.722Z,0.70
2023-03-05T04:52:22.162Z,1.00
2023-03-05T04:57:24.138Z,1.08
2023-03-05T05:02:25.703Z,1.30
2023-03-05T05:07:27.202Z,1.65
2023-03-05T05:12:30.659Z,1.60
2023-03-05T05:17:33.043Z,1.42
2023-03-05T05:27:36.740Z,0.93
2023-03-05T05:32:38.233Z,1.42
2023-03-05T05:37:39.739Z,1.27
2023-03-05T05:42:41.261Z,1.10
2023-03-05T05:47:42.715Z,1.45
2023-03-05T05:52:44.160Z,1.30
2023-03-05T05:57:45.593Z,1.50
2023-03-05T06:02:47.083Z,1.88
2023-03-05T06:07:48.602Z,1.25
2023-03-05T06:12:50.056Z,1.20
2023-03-05T06:17:52.793Z,1.27
2023-03-05T06:22:55.262Z,1.30
2023-03-05T06:27:56.697Z,0.82
2023-03-05T06:32:58.233Z,0.98
2023-03-05T06:38:04.420Z,0.90
2023-03-05T06:43:05.899Z,0.60
2023-03-05T06:48:07.387Z,0.70
2023-03-05T06:53:08.880Z,0.93
2023-03-05T06:58:10.333Z,1.10
2023-03-05T07:03:12.694Z,0.70
2023-03-05T07:08:14.139Z,0.52
2023-03-05T07:13:15.579Z,0.95
2023-03-05T07:18:17.186Z,0.85
2023-03-05T07:23:18.608Z,0.95
2023-03-05T07:28:20.032Z,1.17
2023-03-05T07:33:21.490Z,0.73
2023-03-05T07:38:23.011Z,0.50
2023-03-05T07:43:27.523Z,2.03
2023-03-05T07:48:28.966Z,2.10
2023-03-05T07:53:30.450Z,2.38
2023-03-05T07:58:31.917Z,0.90
2023-03-05T08:03:33.360Z,4.03
2023-03-05T08:08:36.188Z,2.67
2023-03-05T08:13:38.189Z,0.73
2023-03-05T08:18:40.011Z,2.58
2023-03-05T08:23:41.488Z,1.30
2023-03-05T08:28:43.101Z,0.90
2023-03-05T08:33:44.760Z,2.55
2023-03-05T08:38:48.448Z,1.30
2023-03-05T08:43:51.587Z,2.15
2023-03-05T08:48:53.086Z,1.63
2023-03-05T08:53:56.371Z,2.05
2023-03-05T08:58:57.808Z,2.22
2023-03-05T09:04:00.257Z,2.22
2023-03-05T09:09:01.718Z,2.10
2023-03-05T09:14:03.820Z,1.90
2023-03-05T09:19:05.261Z,2.13
2023-03-05T09:24:07.302Z,3.00
2023-03-05T09:29:09.818Z,5.55
2023-03-05T09:34:11.806Z,2.90
2023-03-05T09:39:13.308Z,2.47
2023-03-05T09:44:43.297Z,2.95
2023-03-05T09:49:59.407Z,2.42
2023-03-05T09:55:01.508Z,2.58
2023-03-05T10:00:09.958Z,3.20
2023-03-05T10:05:51.107Z,2.75
2023-03-05T10:10:53.909Z,1.98
2023-03-05T10:16:28.920Z,2.47
2023-03-05T10:22:09.498Z,2.10
2023-03-05T10:27:33.626Z,1.80
2023-03-05T10:33:03.989Z,1.98
2023-03-05T10:38:36.755Z,2.00
2023-03-05T10:44:01.439Z,1.80
2023-03-05T10:49:15.453Z,2.15
2023-03-05T10:54:28.985Z,2.45
2023-03-05T10:59:32.233Z,1.83
2023-03-05T11:04:38.516Z,1.83
2023-03-05T11:09:40.082Z,1.50
2023-03-05T11:14:47.780Z,1.70
2023-03-05T11:19:49.354Z,1.98
2023-03-05T11:25:18.958Z,2.08
2023-03-05T11:30:27.103Z,1.60
2023-03-05T11:35:34.683Z,1.50
2023-03-05T11:40:36.231Z,1.77
2023-03-05T11:45:37.763Z,1.65
2023-03-05T11:50:41.611Z,2.58
2023-03-05T11:55:46.362Z,3.08
2023-03-05T12:00:48.682Z,2.70
2023-03-05T12:06:16.498Z,3.55
2023-03-05T12:11:27.694Z,3.22
2023-03-05T12:16:38.249Z,3.13
2023-03-05T12:21:43.335Z,3.30
2023-03-05T12:27:03.641Z,3.33
2023-03-05T12:32:26.065Z,2.72
2023-03-05T12:37:27.851Z,2.17
2023-03-05T12:42:29.356Z,2.53
2023-03-05T12:47:30.803Z,2.88
2023-03-05T12:52:34.107Z,2.90
2023-03-05T12:57:37.039Z,3.00
2023-03-05T13:02:45.650Z,2.97
2023-03-05T13:07:48.028Z,2.80
2023-03-05T13:12:53.533Z,2.08
2023-03-05T13:17:58.492Z,2.40
2023-03-05T13:23:23.269Z,2.50
2023-03-05T13:28:25.788Z,2.38
2023-03-05T13:33:30.038Z,2.20
2023-03-05T13:38:39.590Z,2.70
2023-03-05T13:43:45.477Z,2.10
2023-03-05T13:48:46.965Z,2.47
2023-03-05T13:53:49.872Z,2.17
2023-03-05T13:59:52.482Z,3.15
2023-03-05T14:04:54.044Z,3.58
2023-03-05T14:09:56.691Z,1.90
2023-03-05T14:14:59.846Z,1.40
2023-03-05T14:20:23.063Z,1.30
2023-03-05T14:25:34.950Z,1.58
2023-03-05T14:35:52.600Z,1.90
2023-03-05T14:40:54.154Z,1.92
2023-03-05T14:45:55.645Z,2.30
2023-03-05T14:50:58.233Z,2.10
2023-03-05T14:55:59.754Z,2.10
2023-03-05T15:01:01.692Z,2.17
2023-03-05T15:06:03.328Z,2.10
2023-03-05T15:11:07.667Z,1.73
2023-03-05T15:16:14.959Z,1.20
2023-03-05T15:21:16.481Z,2.00
2023-03-05T15:26:17.975Z,2.90
2023-03-05T15:31:19.516Z,1.80
2023-03-05T15:36:20.963Z,1.27
2023-03-05T15:41:22.586Z,1.27
2023-03-05T15:46:24.066Z,2.08
2023-03-05T15:51:25.571Z,1.63
2023-03-05T15:56:27.031Z,1.40
2023-03-05T16:01:29.046Z,1.83
2023-03-05T16:11:36.770Z,1.45
2023-03-05T16:16:38.544Z,1.98
2023-03-05T16:21:40.167Z,2.00
2023-03-05T16:26:42.457Z,1.88
2023-03-05T16:31:45.299Z,1.80
2023-03-05T16:36:52.586Z,2.08
2023-03-05T16:41:54.574Z,1.80
2023-03-05T16:46:56.448Z,1.58
2023-03-05T16:52:01.352Z,1.70
2023-03-05T16:57:09.155Z,1.60
2023-03-05T17:02:13.037Z,1.95
2023-03-05T17:07:14.470Z,1.67
2023-03-05T17:12:15.915Z,1.20
2023-03-05T17:17:17.574Z,1.77
2023-03-05T17:22:19.046Z,1.20
2023-03-05T17:27:22.602Z,1.45
2023-03-05T17:32:24.134Z,1.45
2023-03-05T17:37:26.003Z,1.58
2023-03-05T17:42:27.604Z,1.85
2023-03-05T17:47:32.587Z,1.25
2023-03-05T17:52:38.204Z,1.10
2023-03-05T17:57:41.647Z,1.48
2023-03-05T18:07:45.055Z,1.58
2023-03-05T18:12:47.300Z,1.60
2023-03-05T18:17:49.022Z,1.88
2023-03-05T18:22:50.644Z,1.45
2023-03-05T18:27:53.362Z,2.50
2023-03-05T18:32:55.267Z,2.25
2023-03-05T18:37:57.664Z,2.65
2023-03-05T18:43:00.949Z,2.00
2023-03-05T18:48:02.387Z,2.08
2023-03-05T18:53:03.816Z,1.90
2023-03-05T18:58:05.483Z,1.98
2023-03-05T19:03:07.664Z,2.33
2023-03-05T19:13:27.744Z,2.17
2023-03-05T19:18:33.360Z,2.50
2023-03-05T19:23:34.786Z,2.72
2023-03-05T19:28:36.251Z,2.17
2023-03-05T19:33:37.715Z,1.60
2023-03-05T19:38:39.608Z,1.20
2023-03-05T19:43:41.081Z,1.77
2023-03-05T19:48:43.701Z,2.22
2023-03-05T19:53:45.938Z,3.13
2023-03-05T20:03:52.129Z,2.25
2023-03-05T20:08:55.735Z,2.33
2023-03-05T20:13:57.324Z,1.75
2023-03-05T20:18:59.499Z,2.80
2023-03-05T20:29:07.162Z,3.08
2023-03-05T20:34:14.493Z,2.88
2023-03-05T20:39:16.013Z,3.67
2023-03-05T20:44:17.440Z,2.45
2023-03-05T20:49:19.241Z,3.08
2023-03-05T20:54:20.782Z,3.00
2023-03-05T20:59:23.258Z,2.75
2023-03-05T21:04:24.830Z,2.83
2023-03-05T21:09:28.745Z,2.00
2023-03-05T21:14:36.111Z,3.05
2023-03-05T21:19:39.014Z,1.98
2023-03-05T21:24:55.564Z,2.53
2023-03-05T21:29:57.017Z,1.73
2023-03-05T21:35:00.303Z,2.25
2023-03-05T21:40:01.874Z,3.97
2023-03-05T21:45:05.174Z,3.00
2023-03-05T21:50:07.572Z,2.58
2023-03-05T21:55:13.976Z,2.65
2023-03-05T22:00:18.118Z,2.55
2023-03-05T22:05:19.721Z,2.28
2023-03-05T22:10:21.164Z,2.38
2023-03-05T22:15:23.871Z,2.00
2023-03-05T22:20:25.620Z,2.42
2023-03-05T22:25:27.166Z,1.60
2023-03-05T22:30:28.735Z,2.08
2023-03-05T22:35:30.256Z,2.58
2023-03-05T22:40:31.716Z,1.92
2023-03-05T22:45:33.197Z,2.47
2023-03-05T22:50:34.631Z,1.98
2023-03-05T22:55:41.318Z,1.95
2023-03-05T23:00:42.792Z,2.42
2023-03-05T23:05:44.241Z,2.08
2023-03-05T23:10:45.683Z,1.85
2023-03-05T23:15:47.215Z,2.35
2023-03-05T23:20:48.673Z,2.75
2023-03-05T23:25:51.260Z,2.65
2023-03-05T23:30:52.744Z,2.03
2023-03-05T23:35:57.425Z,2.55
2023-03-05T23:41:01.419Z,2.20
2023-03-05T23:46:03.026Z,2.58
2023-03-05T23:51:09.157Z,2.70
2023-03-05T23:56:11.598Z,3.10
